Time;durP1;ratioP1;P1;durP2;ratioP2;P2;SDS_P1;SDS_P2;PMS_P1;PMS_P2;Temp;Humidity;BMP_temperature;BMP_pressure;BME280_temperature;BME280_humidity;BME280_pressure;Samples;Min_cycle;Max_cycle;Signal;HPM_P1;HPM_P2
2022/11/15 00:01:09;;;;;;;38.88;22.25;;;;;;;6.77;100.00;100644.63;5255897;28;20068;-65
2022/11/15 00:03:40;;;;;;;36.25;22.50;;;;;;;6.82;100.00;100639.91;5254223;28;20328;-65
2022/11/15 00:06:12;;;;;;;35.80;22.27;;;;;;;6.84;100.00;100643.28;5250715;28;20483;-65
2022/11/15 00:08:43;;;;;;;35.90;22.77;;;;;;;6.92;100.00;100645.47;5248701;28;20033;-65
2022/11/15 00:11:15;;;;;;;34.90;21.85;;;;;;;6.96;100.00;100653.13;5253536;28;20528;-65
2022/11/15 00:13:46;;;;;;;36.50;21.70;;;;;;;6.98;100.00;100647.72;5252025;28;20435;-65
2022/11/15 00:16:17;;;;;;;35.92;21.90;;;;;;;7.04;100.00;100650.81;5247792;28;20037;-65
2022/11/15 00:18:49;;;;;;;34.88;22.33;;;;;;;7.01;100.00;100647.53;5252045;28;20036;-65
2022/11/15 00:21:20;;;;;;;37.95;22.58;;;;;;;7.09;100.00;100645.22;5244456;28;20026;-65
2022/11/15 00:23:51;;;;;;;33.22;21.77;;;;;;;7.12;100.00;100645.03;5254224;28;20033;-65
2022/11/15 00:26:23;;;;;;;36.67;22.23;;;;;;;7.12;100.00;100645.03;5249815;28;20032;-65
2022/11/15 00:28:54;;;;;;;32.83;21.70;;;;;;;7.19;100.00;100646.34;5252952;28;20063;-65
2022/11/15 00:31:25;;;;;;;31.90;22.17;;;;;;;7.22;100.00;100651.41;5248470;28;20060;-65
2022/11/15 00:33:56;;;;;;;32.45;21.00;;;;;;;7.30;100.00;100635.00;5251718;28;20033;-65
2022/11/15 00:36:28;;;;;;;31.42;21.20;;;;;;;7.35;100.00;100634.72;5245210;28;20032;-65
2022/11/15 00:38:59;;;;;;;32.40;21.35;;;;;;;7.36;100.00;100639.88;5253942;28;20075;-65
2022/11/15 00:41:30;;;;;;;36.15;21.48;;;;;;;7.38;100.00;100638.00;5250761;28;20031;-65
2022/11/15 00:44:02;;;;;;;32.15;21.60;;;;;;;7.44;100.00;100637.59;5251418;28;20082;-65
2022/11/15 00:46:33;;;;;;;32.42;22.17;;;;;;;7.51;100.00;100630.06;5252016;28;20025;-65
2022/11/15 00:49:04;;;;;;;33.33;20.88;;;;;;;7.49;100.00;100631.13;5255942;28;20111;-66
2022/11/15 00:51:35;;;;;;;30.40;21.27;;;;;;;7.62;100.00;100632.00;5251688;28;20024;-65
2022/11/15 00:54:07;;;;;;;33.40;21.35;;;;;;;7.58;100.00;100625.19;5254924;28;20498;-65
2022/11/15 00:56:38;;;;;;;30.98;19.88;;;;;;;7.62;100.00;100632.84;5246715;28;20107;-65
2022/11/15 00:59:09;;;;;;;33.25;22.17;;;;;;;7.64;100.00;100622.13;5247622;28;20048;-65
2022/11/15 01:01:40;;;;;;;30.55;21.45;;;;;;;7.66;100.00;100629.03;5232318;28;20122;-65
2022/11/15 01:04:12;;;;;;;31.08;21.02;;;;;;;7.70;100.00;100623.50;5249040;28;20380;-65
2022/11/15 01:06:43;;;;;;;31.02;20.90;;;;;;;7.74;100.00;100627.66;5249670;28;20070;-65
2022/11/15 01:09:14;;;;;;;32.33;22.15;;;;;;;7.83;100.00;100617.25;5249688;28;20494;-65
2022/11/15 01:11:46;;;;;;;35.15;21.70;;;;;;;7.77;100.00;100630.13;5250161;28;20039;-65
2022/11/15 01:14:17;;;;;;;30.27;20.20;;;;;;;7.78;100.00;100611.41;5252448;28;20035;-65
2022/11/15 01:16:48;;;;;;;29.85;21.25;;;;;;;7.88;100.00;100618.75;5253427;28;20086;-65
2022/11/15 01:19:20;;;;;;;29.40;20.65;;;;;;;7.87;100.00;100617.06;5250317;28;20033;-65
2022/11/15 01:21:51;;;;;;;33.13;22.13;;;;;;;7.91;100.00;100615.88;5251680;28;20032;-65
2022/11/15 01:24:22;;;;;;;30.55;20.17;;;;;;;7.88;100.00;100610.75;5248731;28;20033;-65
2022/11/15 01:26:54;;;;;;;29.35;20.88;;;;;;;7.92;100.00;100607.81;5254936;28;20142;-65
2022/11/15 01:29:25;;;;;;;32.88;21.35;;;;;;;7.91;100.00;100608.75;5251993;28;20111;-65
2022/11/15 01:31:56;;;;;;;31.85;21.15;;;;;;;7.90;100.00;100596.44;5255936;28;20344;-65
2022/11/15 01:34:27;;;;;;;31.38;20.92;;;;;;;7.92;100.00;100604.28;5249977;28;20033;-65
2022/11/15 01:36:59;;;;;;;33.00;21.63;;;;;;;8.00;100.00;100596.66;5249317;28;20102;-65
2022/11/15 01:39:30;;;;;;;30.17;20.27;;;;;;;8.10;100.00;100591.53;5248762;28;20494;-65
2022/11/15 01:42:02;;;;;;;31.42;19.77;;;;;;;8.15;100.00;100592.91;5255128;28;20276;-65
2022/11/15 01:44:33;;;;;;;27.92;19.17;;;;;;;8.08;100.00;100594.28;5251469;28;20032;-66
2022/11/15 01:47:11;;;;;;;31.63;20.30;;;;;;;8.08;100.00;100606.75;5252224;28;20094;-65
2022/11/15 01:49:57;;;;;;;31.45;20.15;;;;;;;8.11;100.00;100602.06;5245430;28;20041;-65
2022/11/15 01:52:33;;;;;;;29.92;20.90;;;;;;;8.11;100.00;100601.19;5239817;28;20039;-65
2022/11/15 01:55:07;;;;;;;32.67;22.42;;;;;;;8.23;100.00;100595.03;5250732;28;20036;-65
2022/11/15 01:57:40;;;;;;;31.02;20.85;;;;;;;8.15;100.00;100598.22;5252847;28;20790;-65
2022/11/15 02:00:13;;;;;;;28.42;20.38;;;;;;;8.16;100.00;100601.72;5249677;28;20032;-65
2022/11/15 02:02:44;;;;;;;28.13;19.55;;;;;;;8.24;100.00;100592.25;5250288;28;20036;-65
2022/11/15 02:05:15;;;;;;;34.10;21.88;;;;;;;8.30;100.00;100595.44;5246080;28;20033;-65
2022/11/15 02:07:48;;;;;;;27.25;20.58;;;;;;;8.28;100.00;100587.56;5251346;28;20075;-65
2022/11/15 02:10:22;;;;;;;33.97;22.30;;;;;;;8.34;100.00;100589.81;5252419;28;20394;-65
2022/11/15 02:12:55;;;;;;;35.38;22.63;;;;;;;8.46;100.00;100581.91;5254161;28;20398;-65
2022/11/15 02:15:39;;;;;;;34.67;22.67;;;;;;;8.39;100.00;100585.00;5250370;28;20099;-65
2022/11/15 02:18:23;;;;;;;30.48;21.48;;;;;;;8.57;100.00;100580.22;5253007;28;20043;-65
2022/11/15 02:21:11;;;;;;;33.83;23.80;;;;;;;8.56;100.00;100581.16;5252503;28;20479;-65
2022/11/15 02:24:03;;;;;;;35.03;22.60;;;;;;;8.59;100.00;100578.28;5250373;28;20021;-65
2022/11/15 02:27:14;;;;;;;33.00;22.05;;;;;;;8.60;100.00;100571.16;5251265;28;20615;-65
2022/11/15 02:30:17;;;;;;;32.17;21.83;;;;;;;8.65;100.00;100574.34;5235776;28;20044;-65
2022/11/15 02:32:58;;;;;;;35.22;22.85;;;;;;;8.73;100.00;100571.94;5251938;28;20048;-65
2022/11/15 02:35:54;;;;;;;34.45;23.13;;;;;;;8.74;100.00;100570.97;5246125;28;20059;-65
2022/11/15 02:38:32;;;;;;;32.30;22.00;;;;;;;8.79;100.00;100571.50;5255178;28;20033;-65
2022/11/15 02:41:15;;;;;;;36.97;24.00;;;;;;;8.84;100.00;100560.53;5251334;28;20037;-65
2022/11/15 02:44:06;;;;;;;34.28;22.70;;;;;;;8.77;100.00;100568.09;5251179;28;20282;-65
2022/11/15 02:49:33;;;;;;;37.83;23.52;;;;;;;8.82;100.00;100555.31;5251067;28;20483;-65
2022/11/15 02:52:04;;;;;;;;;;;;;;;8.87;100.00;100551.47;5256363;28;20092;-66
2022/11/15 02:54:36;;;;;;;36.38;24.30;;;;;;;8.98;100.00;100549.69;5254710;28;19929;-65
2022/11/15 02:57:14;;;;;;;34.28;23.55;;;;;;;8.94;100.00;100555.38;5255929;28;20065;-65
2022/11/15 03:00:14;;;;;;;38.42;23.80;;;;;;;8.93;100.00;100546.53;5256684;28;20033;-66
2022/11/15 03:02:54;;;;;;;35.78;24.05;;;;;;;9.05;100.00;100538.59;5249330;28;20387;-65
2022/11/15 03:05:40;;;;;;;32.13;22.65;;;;;;;9.00;100.00;100536.28;5249727;28;20441;-65
2022/11/15 03:08:26;;;;;;;33.25;24.15;;;;;;;9.10;100.00;100537.28;5252271;28;20021;-65
2022/11/15 03:11:18;;;;;;;32.92;23.10;;;;;;;9.03;100.00;100536.03;5246566;28;20041;-65
2022/11/15 03:14:00;;;;;;;40.88;24.63;;;;;;;9.12;100.00;100538.00;5249443;28;20036;-65
2022/11/15 03:16:44;;;;;;;35.95;23.38;;;;;;;9.12;100.00;100538.00;5255127;28;20039;-65
2022/11/15 03:19:33;;;;;;;33.22;23.08;;;;;;;9.09;100.00;100543.59;5253286;28;20037;-65
2022/11/15 03:22:08;;;;;;;38.58;23.25;;;;;;;9.14;100.00;100543.22;5254794;28;20021;-65
2022/11/15 03:24:42;;;;;;;34.35;22.92;;;;;;;9.11;100.00;100538.13;5251657;28;20044;-65
2022/11/15 03:27:19;;;;;;;34.80;23.70;;;;;;;9.26;100.00;100541.44;5256039;28;20130;-65
2022/11/15 03:29:56;;;;;;;40.42;24.75;;;;;;;9.21;100.00;100539.16;5255790;28;20069;-65
2022/11/15 03:32:31;;;;;;;36.95;24.25;;;;;;;9.25;100.00;100535.28;5254170;28;20044;-65
2022/11/15 03:35:05;;;;;;;32.38;23.02;;;;;;;9.30;100.00;100532.25;5255886;28;20398;-66
2022/11/15 03:37:39;;;;;;;33.50;22.55;;;;;;;9.30;100.00;100545.56;5250289;28;20375;-65
2022/11/15 03:40:11;;;;;;;35.92;24.45;;;;;;;9.30;100.00;100529.59;5254145;28;20041;-65
2022/11/15 03:42:48;;;;;;;37.22;24.15;;;;;;;9.38;100.00;100544.03;5254869;28;20037;-65
2022/11/15 03:45:29;;;;;;;36.05;23.33;;;;;;;9.36;100.00;100537.13;5247300;28;20399;-65
2022/11/15 03:48:11;;;;;;;32.78;22.38;;;;;;;9.49;100.00;100542.34;5250251;28;20029;-65
2022/11/15 03:50:43;;;;;;;32.55;21.95;;;;;;;9.38;100.00;100541.38;5254162;28;20033;-66
2022/11/15 03:53:15;;;;;;;35.60;24.20;;;;;;;9.41;100.00;100540.28;5256121;28;20171;-65
2022/11/15 03:55:46;;;;;;;33.35;22.90;;;;;;;9.34;100.00;100539.91;5252080;28;20491;-65
2022/11/15 03:58:17;;;;;;;38.45;25.35;;;;;;;9.42;100.00;100542.00;5252517;28;20378;-65
2022/11/15 04:00:48;;;;;;;34.22;24.00;;;;;;;9.36;100.00;100540.66;5251381;28;20386;-65
2022/11/15 04:03:20;;;;;;;38.75;24.70;;;;;;;9.42;100.00;100531.34;5245863;28;20043;-65
2022/11/15 04:05:51;;;;;;;37.75;24.23;;;;;;;9.53;100.00;100539.34;5254672;28;20061;-65
2022/11/15 04:08:22;;;;;;;36.85;23.83;;;;;;;9.46;100.00;100540.78;5248132;28;20029;-65
2022/11/15 04:10:53;;;;;;;38.28;24.25;;;;;;;9.49;100.00;100531.69;5250189;28;20033;-65
2022/11/15 04:13:25;;;;;;;38.08;23.88;;;;;;;9.50;100.00;100533.41;5256242;28;20033;-65
2022/11/15 04:15:56;;;;;;;38.13;26.00;;;;;;;9.51;100.00;100525.31;5255028;28;20036;-65
2022/11/15 04:18:27;;;;;;;41.33;26.65;;;;;;;9.54;100.00;100518.88;5252342;28;20043;-65
2022/11/15 04:26:26;;;;;;;41.65;25.90;;;;;;;9.62;100.00;100527.97;5249898;28;20068;-65
2022/11/15 04:31:47;;;;;;;37.50;25.52;;;;;;;9.48;100.00;100522.88;5246586;28;20048;-65
2022/11/15 04:34:18;;;;;;;43.58;26.55;;;;;;;9.51;100.00;100530.63;5248264;28;20025;-65
2022/11/15 04:39:40;;;;;;;39.25;25.42;;;;;;;9.59;100.00;100533.56;5256280;28;20041;-65
2022/11/15 04:42:12;;;;;;;33.50;24.60;;;;;;;9.52;100.00;100536.81;5251004;28;20033;-65
2022/11/15 04:44:43;;;;;;;38.08;25.05;;;;;;;9.54;100.00;100542.84;5245880;28;20111;-65
2022/11/15 04:47:14;;;;;;;35.65;24.30;;;;;;;9.47;100.00;100530.97;5252506;28;20124;-65
2022/11/15 04:49:45;;;;;;;38.08;24.30;;;;;;;9.60;100.00;100532.56;5251452;28;20033;-66
2022/11/15 04:52:17;;;;;;;35.92;23.98;;;;;;;9.45;100.00;100536.41;5249733;28;20032;-65
2022/11/15 04:54:48;;;;;;;39.72;24.50;;;;;;;9.52;100.00;100536.81;5252517;28;20123;-66
2022/11/15 04:57:19;;;;;;;36.53;23.92;;;;;;;9.60;100.00;100537.88;5235166;28;20049;-66
2022/11/15 04:59:51;;;;;;;37.97;24.00;;;;;;;9.55;100.00;100529.44;5246651;28;20020;-65
2022/11/15 05:02:22;;;;;;;38.80;24.02;;;;;;;9.55;100.00;100526.75;5249232;28;20037;-65
2022/11/15 05:04:53;;;;;;;36.20;24.05;;;;;;;9.56;100.00;100525.78;5248738;28;20025;-65
2022/11/15 05:07:24;;;;;;;34.58;23.17;;;;;;;9.53;100.00;100534.03;5252760;28;20037;-66
2022/11/15 05:09:56;;;;;;;36.63;23.80;;;;;;;9.56;100.00;100533.78;5253691;28;20052;-66
2022/11/15 05:12:27;;;;;;;34.40;23.48;;;;;;;9.57;100.00;100532.81;5251952;28;20448;-65
2022/11/15 05:14:58;;;;;;;35.75;22.92;;;;;;;9.49;100.00;100534.38;5252945;28;20386;-65
2022/11/15 05:17:29;;;;;;;34.92;22.33;;;;;;;9.49;100.00;100532.56;5250883;28;20434;-65
2022/11/15 05:20:01;;;;;;;34.13;23.15;;;;;;;9.51;100.00;100529.75;5254094;28;20426;-65
2022/11/15 05:22:32;;;;;;;28.88;20.85;;;;;;;9.61;100.00;100531.59;5251880;28;20148;-65
2022/11/15 05:25:04;;;;;;;35.10;22.42;;;;;;;9.52;100.00;100524.31;5245599;28;20072;-65
2022/11/15 05:27:35;;;;;;;36.17;22.73;;;;;;;9.64;100.00;100524.34;5235927;28;20059;-65
2022/11/15 05:30:07;;;;;;;37.17;25.05;;;;;;;9.52;100.00;100524.31;5250626;28;20032;-65
2022/11/15 05:32:39;;;;;;;31.30;22.45;;;;;;;9.53;100.00;100520.72;5240917;28;20033;-65
2022/11/15 05:35:22;;;;;;;31.45;22.35;;;;;;;9.51;100.00;100517.31;5247017;28;20036;-66
2022/11/15 05:37:53;;;;;;;32.55;22.20;;;;;;;9.48;100.00;100512.22;5246273;28;20033;-65
2022/11/15 05:40:26;;;;;;;32.45;21.75;;;;;;;9.67;100.00;100516.13;5245339;28;20103;-65
2022/11/15 05:42:59;;;;;;;31.63;21.15;;;;;;;9.57;100.00;100508.00;5248293;28;20048;-65
2022/11/15 05:45:33;;;;;;;35.42;22.45;;;;;;;9.57;100.00;100513.34;5250182;28;20036;-66
2022/11/15 05:48:09;;;;;;;32.85;22.08;;;;;;;9.56;100.00;100512.47;5243510;28;20036;-65
2022/11/15 05:50:45;;;;;;;34.05;21.85;;;;;;;9.49;100.00;100511.28;5254565;28;20060;-66
2022/11/15 05:53:19;;;;;;;30.50;21.27;;;;;;;9.51;100.00;100513.78;5252756;28;20036;-65
2022/11/15 05:55:51;;;;;;;30.60;20.95;;;;;;;9.61;100.00;100525.44;5245614;28;20044;-65
2022/11/15 05:58:23;;;;;;;29.73;21.27;;;;;;;9.62;100.00;100527.97;5249531;28;20414;-65
2022/11/15 06:00:54;;;;;;;34.83;22.30;;;;;;;9.53;100.00;100531.38;5248723;28;20035;-65
2022/11/15 06:03:26;;;;;;;30.95;20.88;;;;;;;9.54;100.00;100534.88;5248179;28;20029;-65
2022/11/15 06:05:57;;;;;;;32.90;22.17;;;;;;;9.62;100.00;100535.13;5247011;28;20082;-65
2022/11/15 06:08:28;;;;;;;31.25;21.42;;;;;;;9.72;100.00;100537.91;5252734;28;20025;-65
2022/11/15 06:11:07;;;;;;;31.90;21.17;;;;;;;9.61;100.00;100536.94;5254829;28;20041;-65
2022/11/15 06:13:38;;;;;;;33.10;22.52;;;;;;;9.79;100.00;100537.31;5251975;28;20040;-65
2022/11/15 06:16:09;;;;;;;28.25;21.85;;;;;;;9.58;100.00;100542.50;5252250;28;20467;-65
2022/11/15 06:18:40;;;;;;;29.60;21.25;;;;;;;9.56;100.00;100538.25;5244433;28;20025;-65
2022/11/15 06:21:12;;;;;;;32.00;22.77;;;;;;;9.62;100.00;100543.94;5246076;28;20590;-64
2022/11/15 06:23:43;;;;;;;33.15;22.58;;;;;;;9.71;100.00;100546.88;5251362;28;20033;-64
2022/11/15 06:26:14;;;;;;;29.88;21.75;;;;;;;9.58;100.00;100542.50;5257935;28;20062;-64
2022/11/15 06:28:46;;;;;;;31.77;22.17;;;;;;;9.77;100.00;100543.75;5254019;28;20597;-64
2022/11/15 06:31:17;;;;;;;34.22;21.17;;;;;;;9.69;100.00;100539.00;5256281;28;20065;-64
2022/11/15 06:33:49;;;;;;;31.65;21.48;;;;;;;9.78;100.00;100540.97;5254460;28;20032;-64
2022/11/15 06:36:20;;;;;;;36.08;23.23;;;;;;;9.74;100.00;100554.63;5251439;28;20037;-64
2022/11/15 06:38:52;;;;;;;34.17;21.38;;;;;;;9.76;100.00;100545.56;5235561;28;20029;-64
2022/11/15 06:41:23;;;;;;;31.60;21.52;;;;;;;9.69;100.00;100543.50;5252716;28;20090;-64
2022/11/15 06:43:54;;;;;;;31.13;20.60;;;;;;;9.70;100.00;100546.00;5251001;28;20079;-64
2022/11/15 06:46:26;;;;;;;28.05;19.92;;;;;;;9.64;100.00;100551.81;5255747;28;20503;-64
2022/11/15 06:48:57;;;;;;;29.08;19.50;;;;;;;9.62;100.00;100548.44;5249442;28;20118;-64
2022/11/15 06:51:28;;;;;;;24.77;18.05;;;;;;;9.56;100.00;100555.09;5255986;28;20033;-64
2022/11/15 06:54:00;;;;;;;29.95;19.60;;;;;;;9.70;100.00;100566.50;5247992;28;20060;-63
2022/11/15 06:56:33;;;;;;;26.58;17.95;;;;;;;9.64;100.00;100562.47;5254667;28;20139;-64
2022/11/15 06:59:04;;;;;;;27.63;18.17;;;;;;;9.54;100.00;100565.00;5254326;28;20037;-63
2022/11/15 07:01:35;;;;;;;27.52;18.13;;;;;;;9.58;100.00;100560.28;5235656;28;20028;-63
2022/11/15 07:04:07;;;;;;;26.13;18.55;;;;;;;9.59;100.00;100562.00;5252913;28;20033;-63
2022/11/15 07:06:38;;;;;;;25.27;17.75;;;;;;;9.62;100.00;100565.25;5245023;28;20035;-63
2022/11/15 07:09:09;;;;;;;26.58;18.10;;;;;;;9.68;100.00;100563.94;5245836;28;20079;-63
2022/11/15 07:11:40;;;;;;;27.25;18.40;;;;;;;9.56;100.00;100565.72;5253926;28;20359;-63
2022/11/15 07:14:12;;;;;;;25.23;17.25;;;;;;;9.61;100.00;100571.56;5258422;28;20621;-63
2022/11/15 07:16:43;;;;;;;25.33;17.13;;;;;;;9.58;100.00;100574.44;5257506;28;20043;-63
2022/11/15 07:19:14;;;;;;;26.60;16.75;;;;;;;9.53;100.00;100586.41;5254803;28;20032;-64
2022/11/15 07:21:46;;;;;;;22.42;16.05;;;;;;;9.57;100.00;100583.44;5253252;28;20140;-63
2022/11/15 07:24:17;;;;;;;26.10;17.98;;;;;;;9.56;100.00;100578.22;5253284;28;20029;-64
2022/11/15 07:26:49;;;;;;;25.85;17.45;;;;;;;9.57;100.00;100572.78;5259419;28;20031;-63
2022/11/15 07:29:20;;;;;;;27.70;17.45;;;;;;;9.67;100.00;100583.56;5249472;28;20025;-64
2022/11/15 07:31:51;;;;;;;24.80;17.60;;;;;;;9.56;100.00;100572.88;5255914;28;20044;-64
2022/11/15 07:34:23;;;;;;;25.67;16.80;;;;;;;9.64;100.00;100580.28;5252753;28;20030;-64
2022/11/15 07:36:54;;;;;;;25.63;17.30;;;;;;;9.62;100.00;100581.25;5256404;28;20486;-63
2022/11/15 07:39:26;;;;;;;26.05;16.90;;;;;;;9.59;100.00;100565.50;5255870;28;20036;-64
2022/11/15 07:44:47;;;;;;;27.10;17.05;;;;;;;9.62;100.00;100564.41;5251781;28;20025;-65
2022/11/15 07:47:18;;;;;;;25.60;17.33;;;;;;;9.64;100.00;100566.97;5251642;28;20053;-63
2022/11/15 07:49:49;;;;;;;25.48;17.08;;;;;;;9.60;100.00;100561.88;5253538;28;20454;-63
2022/11/15 07:52:21;;;;;;;23.38;16.73;;;;;;;9.61;100.00;100568.06;5252204;28;20068;-63
2022/11/15 07:54:52;;;;;;;28.63;17.77;;;;;;;9.61;100.00;100565.41;5256315;28;20446;-63
2022/11/15 07:57:23;;;;;;;27.55;17.30;;;;;;;9.62;100.00;100567.91;5256822;28;20491;-64
2022/11/15 07:59:54;;;;;;;26.02;17.23;;;;;;;9.57;100.00;100563.94;5254881;28;20486;-63
2022/11/15 08:02:26;;;;;;;25.88;17.02;;;;;;;9.55;100.00;100573.84;5256166;28;20057;-63
2022/11/15 08:04:57;;;;;;;29.75;19.80;;;;;;;9.52;100.00;100590.06;5256263;28;20498;-65
2022/11/15 08:07:30;;;;;;;26.08;18.17;;;;;;;9.58;100.00;100578.94;5249490;28;20475;-64
2022/11/15 08:10:01;;;;;;;24.10;16.98;;;;;;;9.59;100.00;100581.50;5254530;28;20578;-65
2022/11/15 08:12:33;;;;;;;25.40;17.67;;;;;;;9.58;100.00;100589.59;5256421;28;20058;-64
2022/11/15 08:15:05;;;;;;;24.20;16.20;;;;;;;9.55;100.00;100588.03;5252506;28;20033;-65
2022/11/15 08:17:36;;;;;;;24.02;16.40;;;;;;;9.53;100.00;100589.09;5252404;28;20544;-65
2022/11/15 08:20:07;;;;;;;23.33;14.55;;;;;;;9.52;100.00;100582.09;5248444;28;20119;-65
2022/11/15 08:22:39;;;;;;;22.45;13.90;;;;;;;9.46;100.00;100577.22;5236883;28;20079;-65
2022/11/15 08:25:10;;;;;;;23.27;13.82;;;;;;;9.47;100.00;100581.56;5252277;28;20025;-64
2022/11/15 08:27:41;;;;;;;20.23;13.23;;;;;;;9.45;100.00;100586.16;5253162;28;20029;-64
2022/11/15 08:30:15;;;;;;;18.40;12.45;;;;;;;9.39;100.00;100584.81;5250596;28;20057;-66
2022/11/15 08:32:48;;;;;;;20.77;12.85;;;;;;;9.43;100.00;100578.28;5246141;28;20553;-65
2022/11/15 08:35:20;;;;;;;17.00;12.48;;;;;;;9.42;100.00;100573.94;5248693;28;20025;-65
2022/11/15 08:37:52;;;;;;;16.17;11.57;;;;;;;9.39;100.00;100569.69;5253114;28;20376;-65
2022/11/15 08:40:24;;;;;;;17.17;12.20;;;;;;;9.36;100.00;100558.44;5250597;28;20562;-65
2022/11/15 08:42:55;;;;;;;14.95;10.77;;;;;;;9.41;100.00;100564.25;5256863;28;20120;-65
2022/11/15 08:45:26;;;;;;;15.38;10.52;;;;;;;9.39;100.00;100553.69;5249279;28;20022;-70
2022/11/15 08:48:00;;;;;;;17.40;10.57;;;;;;;9.36;100.00;100548.63;5248310;28;20338;-69
2022/11/15 08:50:31;;;;;;;17.80;11.03;;;;;;;9.39;100.00;100550.19;5243856;28;20108;-69
2022/11/15 08:53:08;;;;;;;14.75;10.27;;;;;;;9.38;100.00;100544.03;5251132;28;20849;-69
2022/11/15 08:55:40;;;;;;;18.20;9.57;;;;;;;9.45;100.00;100544.41;5250447;28;20056;-68
2022/11/15 08:58:11;;;;;;;15.02;9.88;;;;;;;9.44;100.00;100544.53;5252222;28;20379;-69
2022/11/15 09:00:43;;;;;;;13.85;9.02;;;;;;;9.44;100.00;100548.03;5252897;28;20032;-69
2022/11/15 09:03:15;;;;;;;13.18;9.38;;;;;;;9.46;100.00;100537.28;5250575;28;20057;-68
2022/11/15 09:05:46;;;;;;;13.30;8.68;;;;;;;9.51;100.00;100537.75;5250449;28;20028;-68
2022/11/15 09:08:18;;;;;;;12.27;8.57;;;;;;;9.48;100.00;100522.03;5253194;28;20478;-68
2022/11/15 09:10:49;;;;;;;10.70;7.40;;;;;;;9.48;100.00;100530.03;5244435;28;20025;-68
2022/11/15 09:13:20;;;;;;;10.50;7.28;;;;;;;9.49;100.00;100519.25;5250824;28;20029;-69
2022/11/15 09:15:52;;;;;;;11.10;6.60;;;;;;;9.51;100.00;100527.09;5249069;28;20479;-69
2022/11/15 09:18:23;;;;;;;10.02;6.03;;;;;;;9.50;100.00;100512.94;5253065;28;20691;-68
2022/11/15 09:20:56;;;;;;;9.35;5.70;;;;;;;9.54;100.00;100511.75;5249972;28;20140;-68
2022/11/15 09:23:28;;;;;;;7.25;5.22;;;;;;;9.59;100.00;100506.91;5249038;28;20020;-69
2022/11/15 09:26:01;;;;;;;8.07;5.03;;;;;;;9.58;100.00;100507.88;5242148;28;20029;-69
2022/11/15 09:28:33;;;;;;;8.13;4.45;;;;;;;9.59;100.00;100512.25;5253183;28;20028;-69
2022/11/15 09:31:06;;;;;;;12.32;6.50;;;;;;;9.62;100.00;100514.66;5255025;28;20060;-68
2022/11/15 09:33:37;;;;;;;8.88;6.00;;;;;;;9.68;100.00;100515.16;5251426;28;20025;-68
2022/11/15 09:36:09;;;;;;;6.93;4.75;;;;;;;9.68;100.00;100515.16;5241531;28;20034;-69
2022/11/15 09:38:40;;;;;;;6.55;4.20;;;;;;;9.68;100.00;100504.50;5246592;28;20029;-68
2022/11/15 09:41:11;;;;;;;5.82;3.53;;;;;;;9.67;100.00;100513.47;5253804;28;20336;-69
2022/11/15 09:44:18;;;;;;;5.82;3.22;;;;;;;9.69;100.00;100512.38;5253994;28;20477;-68
2022/11/15 09:47:14;;;;;;;7.45;3.42;;;;;;;9.70;100.00;100506.06;5230789;28;20044;-68
2022/11/15 09:49:47;;;;;;;5.78;3.30;;;;;;;9.72;100.00;100511.28;5254052;28;20047;-69
2022/11/15 09:52:20;;;;;;;4.93;3.38;;;;;;;9.68;100.00;100502.66;5245675;28;20740;-68
2022/11/15 09:54:52;;;;;;;6.00;3.00;;;;;;;9.74;100.00;100512.88;5248385;28;20124;-69
2022/11/15 09:57:32;;;;;;;5.68;2.90;;;;;;;9.72;100.00;100497.94;5253871;28;20476;-71
2022/11/15 10:00:13;;;;;;;5.63;2.67;;;;;;;9.70;100.00;100494.56;5250732;28;20024;-71
2022/11/15 10:03:00;;;;;;;3.50;1.90;;;;;;;9.71;100.00;100502.44;5253492;28;20033;-69
2022/11/15 10:05:38;;;;;;;4.90;1.88;;;;;;;9.69;100.00;100501.72;5243824;28;20126;-69
2022/11/15 10:08:30;;;;;;;8.20;2.75;;;;;;;9.72;100.00;100500.63;5245703;28;20104;-69
2022/11/15 10:11:05;;;;;;;5.88;2.17;;;;;;;9.74;100.00;100506.66;5253891;28;20363;-68
2022/11/15 10:13:41;;;;;;;4.63;1.70;;;;;;;9.72;100.00;100492.63;5240433;28;20063;-69
2022/11/15 10:16:30;;;;;;;5.30;1.70;;;;;;;9.78;100.00;100493.00;5250558;28;20036;-68
2022/11/15 10:19:09;;;;;;;4.78;1.50;;;;;;;9.76;100.00;100494.06;5251739;28;20071;-68
2022/11/15 10:21:57;;;;;;;4.28;1.70;;;;;;;9.80;100.00;100503.53;5255869;28;20028;-69
2022/11/15 10:24:39;;;;;;;7.63;1.95;;;;;;;9.75;100.00;100487.06;5252788;28;20028;-69
2022/11/15 10:27:16;;;;;;;6.00;1.65;;;;;;;9.78;100.00;100489.50;5253876;28;20032;-69
2022/11/15 10:29:49;;;;;;;6.00;1.90;;;;;;;9.78;100.00;100478.84;5251614;28;20036;-69
2022/11/15 10:32:21;;;;;;;5.53;1.70;;;;;;;9.79;100.00;100478.69;5249960;28;20098;-68
2022/11/15 10:34:52;;;;;;;4.07;1.20;;;;;;;9.81;100.00;100474.09;5252450;28;20017;-70
2022/11/15 10:37:31;;;;;;;6.78;1.40;;;;;;;9.84;100.00;100467.69;5251917;28;20040;-70
2022/11/15 10:40:05;;;;;;;4.93;1.10;;;;;;;9.86;100.00;100475.56;5251461;28;20041;-70
2022/11/15 10:42:36;;;;;;;3.97;1.10;;;;;;;9.85;100.00;100469.38;5252497;28;20475;-69
2022/11/15 10:45:31;;;;;;;4.57;1.15;;;;;;;9.89;100.00;100448.66;5251785;28;20075;-70
2022/11/15 10:48:12;;;;;;;3.55;1.00;;;;;;;9.92;100.00;100443.94;5247334;28;20037;-70
2022/11/15 10:50:45;;;;;;;4.43;1.10;;;;;;;9.91;100.00;100449.38;5251722;28;20029;-70
2022/11/15 10:53:31;;;;;;;6.07;1.13;;;;;;;9.96;100.00;100449.88;5252765;28;20039;-69
2022/11/15 10:56:08;;;;;;;6.65;1.33;;;;;;;9.96;100.00;100439.22;5247921;28;20060;-70
2022/11/15 10:58:42;;;;;;;5.20;1.33;;;;;;;9.96;100.00;100445.38;5251345;28;20075;-69
2022/11/15 11:01:19;;;;;;;4.28;1.88;;;;;;;9.96;100.00;100440.03;5248425;28;20041;-69
2022/11/15 11:04:08;;;;;;;11.13;5.82;;;;;;;10.06;100.00;100436.66;5254546;28;20059;-70
2022/11/15 11:06:56;;;;;;;12.27;5.97;;;;;;;10.08;100.00;100438.19;5254674;28;20040;-69
2022/11/15 11:09:32;;;;;;;7.22;1.48;;;;;;;10.11;100.00;100427.31;5244682;28;20107;-69
2022/11/15 11:12:05;;;;;;;4.13;1.23;;;;;;;10.08;100.00;100419.53;5256516;28;20123;-70
2022/11/15 11:14:39;;;;;;;4.85;1.38;;;;;;;10.16;100.00;100421.59;5255935;28;20043;-68
2022/11/15 11:17:23;;;;;;;5.53;1.30;;;;;;;10.19;100.00;100410.69;5249673;28;20024;-69
2022/11/15 11:20:17;;;;;;;6.75;1.20;;;;;;;10.18;100.00;100403.63;5256179;28;20617;-69
2022/11/15 11:23:12;;;;;;;5.45;1.70;;;;;;;10.21;100.00;100400.75;5250503;28;20028;-69
2022/11/15 11:26:03;;;;;;;3.55;1.35;;;;;;;10.24;100.00;100396.97;5251910;28;20041;-70
2022/11/15 11:28:48;;;;;;;6.18;1.30;;;;;;;10.30;100.00;100389.34;5248304;28;20036;-70
2022/11/15 11:31:24;;;;;;;6.20;1.15;;;;;;;10.26;100.00;100376.34;5252097;28;20474;-70
2022/11/15 11:34:24;;;;;;;5.32;1.70;;;;;;;10.29;100.00;100376.09;5258435;28;20472;-70
2022/11/15 11:37:23;;;;;;;4.80;1.20;;;;;;;10.32;100.00;100379.41;5246919;28;20434;-70
2022/11/15 11:40:30;;;;;;;4.53;1.13;;;;;;;10.34;100.00;100364.13;5255549;28;20482;-70
2022/11/15 11:43:11;;;;;;;4.28;1.30;;;;;;;10.42;100.00;100362.63;5253592;28;20041;-71
2022/11/15 11:46:27;;;;;;;3.95;1.05;;;;;;;10.48;100.00;100359.47;5247717;28;20028;-70
2022/11/15 11:49:09;;;;;;;7.45;1.50;;;;;;;10.58;100.00;100355.91;5209718;28;20506;-69
2022/11/15 11:51:50;;;;;;;6.88;1.30;;;;;;;10.55;100.00;100347.31;5248374;28;20031;-70
2022/11/15 11:54:42;;;;;;;7.38;1.60;;;;;;;10.64;100.00;100346.50;5253594;28;20033;-70
2022/11/15 11:57:27;;;;;;;4.78;1.20;;;;;;;10.65;100.00;100337.53;5253323;28;20049;-70
2022/11/15 12:00:04;;;;;;;6.97;1.30;;;;;;;10.64;100.00;100335.81;5252909;28;20111;-69
2022/11/15 12:02:43;;;;;;;4.85;0.98;;;;;;;10.67;100.00;100332.91;5257838;28;20029;-70
2022/11/15 12:05:41;;;;;;;5.43;1.10;;;;;;;10.72;100.00;100322.69;5247462;28;20021;-69